Ana Sayfa
METAR-TAF:

METAR-TAF

Havaalanları :

Altus, Oklahoma, Amerika Birleşik Devletleri

Enlem: 34-41-55N, Boylam: 099-20-17W, yükseklik: 437 m

Güncel hava durumu gözlemi

Rapor saat 03:55 UTC de 13 dakika önce yapıldı.
Rüzgar güneydoğudan 12 kt
Sıcaklık 30°C
Nem 49%
Basınç 1012 hPa
Görüş mesafesi: 11.3 km
Açık gökyüzü

METAR: KAXS 210355Z AUTO 14012KT 7SM CLR 30/18 A2987 RMK AO2 T03020177

Saat: 23:08 (04:08 UTC)


TAF: eksik

4.000'den fazla havaalanı için hava durumu gözlemleri ve tahminleri (METAR ve TAF raporları).

Kullanılabilir istasyonlar harita üzerinde sarı ve kırmızı noktalarla gösterilir.

İstasyonun adını görmek için fareyi noktanın üzerinde gezdirin.

Sonrasında hava gözlem ve tahminlerini görmek için tıklayın.

Haritayı değiştirmek için: yaklaştırmak için siyah artı işaretli yeşil düğmeye ve uzaklaştırmak için de eksi işaretli düğmeye hızla tıklayın; bitişik haritalar için yeşil okları kullanın.


METAR-TAF: